WetterOnline ( https://www.wetteronline.de )

Wetter aktuell Coesfeld

Aktuelles Wetter: Ahaus (46m)

6-stündlich | Neueste Meldungen
Ortszeit Temperatur Wetter
Fr, 01.03. 1:00 9.0° C bedeckt
Do, 29.02. 19:00 10.3° C leichter Regen
Do, 29.02. 13:00 9.9° C bedeckt
Do, 29.02. 7:00 5.6° C bedeckt
Do, 29.02. 1:00 5.5° C leicht bewölkt
Mi, 28.02. 19:00 5.8° C bedeckt
Mi, 28.02. 13:00 5.7° C bewölkt
Mi, 28.02. 7:00 1.4° C Nebel
Ortszeit Temperatur Wetter
Fr, 01.03. 2:00 8.9° C bedeckt
Fr, 01.03. 1:30 8.8° C bedeckt
Fr, 01.03. 1:20 8.8° C bedeckt
Fr, 01.03. 1:10 8.8° C bedeckt
Fr, 01.03. 1:00 9.0° C bedeckt
Fr, 01.03. 0:50 9.0° C bedeckt
Fr, 01.03. 0:30 9.1° C bewölkt
Fr, 01.03. 0:00 9.3° C bewölkt
Do, 29.02. 23:30 9.6° C bedeckt
Do, 29.02. 23:00 9.7° C bedeckt
Ortszeit Relative Feuchte Sichtweite
Fr, 01.03. 1:00 64% 55 km
Do, 29.02. 19:00 61% 55 km
Do, 29.02. 13:00 73% 45 km
Do, 29.02. 7:00 72% 30 km
Do, 29.02. 1:00 78% 14 km
Mi, 28.02. 19:00 83% 11 km
Mi, 28.02. 13:00 86% 7 km
Mi, 28.02. 7:00 100% 0.2 km
Ortszeit Relative Feuchte Sichtweite
Fr, 01.03. 2:00 65% 45 km
Fr, 01.03. 1:30 66% 45 km
Fr, 01.03. 1:20 66% -
Fr, 01.03. 1:10 65% -
Fr, 01.03. 1:00 64% 55 km
Fr, 01.03. 0:50 64% -
Fr, 01.03. 0:30 64% 50 km
Fr, 01.03. 0:00 62% 55 km
Do, 29.02. 23:30 59% 60 km
Do, 29.02. 23:00 57% 50 km
Ortszeit Niederschlagsmenge Niederschlagsart
Fr, 01.03. 1:00 0.1 l/m2 in 6 Std. Regen
Do, 29.02. 19:00 0.1 l/m2 in 12 Std. Regen
Do, 29.02. 13:00 0.1 l/m2 in 6 Std. Regen
Do, 29.02. 7:00 0.0 l/m2 in 12 Std. -
Do, 29.02. 1:00 0.0 l/m2 in 6 Std. -
Mi, 28.02. 19:00 0.1 l/m2 in 12 Std. -
Mi, 28.02. 13:00 0.1 l/m2 in 6 Std. Regen
Mi, 28.02. 7:00 0.0 l/m2 in 12 Std. -
Ortszeit Niederschlagsmenge Niederschlagsart
Fr, 01.03. 2:00 keine Meldung -
Fr, 01.03. 1:30 0.0 l/m2 in 30 Min -
Fr, 01.03. 1:20 keine Meldung -
Fr, 01.03. 1:10 keine Meldung -
Fr, 01.03. 1:00 0.0 l/m2 in 1 Std. Regen
Fr, 01.03. 0:50 keine Meldung -
Fr, 01.03. 0:30 0.0 l/m2 in 30 Min -
Fr, 01.03. 0:00 0.0 l/m2 in 1 Std. -
Do, 29.02. 23:30 0.0 l/m2 in 30 Min -
Do, 29.02. 23:00 0.0 l/m2 in 1 Std. -
Ortszeit Stärke Spitze Richtung
km/h Bft. km/h Grad Sektor
Fr, 01.03. 1:00 15 3 30 160° S
Do, 29.02. 19:00 14 3 36 150° SO
Do, 29.02. 13:00 20 4 33 190° S
Do, 29.02. 7:00 18 3 32 190° S
Do, 29.02. 1:00 11 2 22 170° S
Mi, 28.02. 19:00 7 2 25 170° S
Mi, 28.02. 13:00 13 3 20 200° S
Mi, 28.02. 7:00 9 2 15 190° S
Ortszeit Stärke Spitze Richtung
km/h Bft. km/h Grad Sektor
Fr, 01.03. 2:00 14 3 25 170° S
Fr, 01.03. 1:30 13 3 24 160° S
Fr, 01.03. 1:20 13 3 - 160° S
Fr, 01.03. 1:10 14 3 - 160° S
Fr, 01.03. 1:00 15 3 28 160° S
Fr, 01.03. 0:50 15 3 - 160° S
Fr, 01.03. 0:30 14 3 29 170° S
Fr, 01.03. 0:00 15 3 26 170° S
Do, 29.02. 23:30 17 3 26 180° S
Do, 29.02. 23:00 14 3 29 160° S
Ortszeit Untergrenze Bedeckung Gattung
total tief tief mittel hoch
Fr, 01.03. 1:00 750 m 8/8 8/8 - - -
Do, 29.02. 19:00 840 m 7/8 7/8 - - -
Do, 29.02. 13:00 630 m 8/8 8/8 - - -
Do, 29.02. 7:00 930 m 8/8 8/8 - - -
Do, 29.02. 1:00 1080 m 5/8 1/8 - - -
Mi, 28.02. 19:00 3900 m 8/8 8/8 - - -
Mi, 28.02. 13:00 300 m 7/8 7/8 - - -
Mi, 28.02. 7:00 <30 m 8/8 0/8 - - -
Ortszeit Bedeckungsgrad in Achtel und Wolkenuntergrenze
Fr, 01.03. 2:00 7(720m) 8(960m)
Fr, 01.03. 1:30 7(810m) 8(1470m)
Fr, 01.03. 1:20 7(810m) 8(1470m)
Fr, 01.03. 1:10 8
Fr, 01.03. 1:00 7(750m) 8(1470m)
Fr, 01.03. 0:50 7(750m) 8(1470m)
Fr, 01.03. 0:30 7(750m)
Fr, 01.03. 0:00 7(780m)
Do, 29.02. 23:30 8(750m)
Do, 29.02. 23:00 7(840m) 8(1170m) 8(1500m)
Ortszeit Luftdruck NN (hPa) Tendenz (hPa in 3 Std.)
Fr, 01.03. 1:00 1003 - 1,6
Do, 29.02. 19:00 1006 - 1,6
Do, 29.02. 13:00 1010 - 1,8
Do, 29.02. 7:00 1013 - 1,8
Do, 29.02. 1:00 1017 - 1,5
Mi, 28.02. 19:00 1020 - 1,2
Mi, 28.02. 13:00 1022 - 0,2
Mi, 28.02. 7:00 1021 + 0,5
Ortszeit Luftdruck NN (hPa) Tendenz (hPa in 3 Std.)
Fr, 01.03. 2:00 1003 - 1,5
Fr, 01.03. 1:30 1003 - 1,5
Fr, 01.03. 1:20 1003 keine Meldung
Fr, 01.03. 1:10 1003 keine Meldung
Fr, 01.03. 1:00 1003 - 1,6
Fr, 01.03. 0:50 1003 keine Meldung
Fr, 01.03. 0:30 1004 - 1,6
Fr, 01.03. 0:00 1004 - 1,4
Do, 29.02. 23:30 1004 - 1,3
Do, 29.02. 23:00 1004 - 1,1
Ortszeit Schneehöhe (cm)
Fr, 01.03. 1:00 0
Do, 29.02. 19:00 0
Do, 29.02. 13:00 0
Do, 29.02. 7:00 0
Do, 29.02. 1:00 0
Mi, 28.02. 19:00 0
Mi, 28.02. 13:00 0
Mi, 28.02. 7:00 0
Ortszeit Schneehöhe (cm)
Fr, 01.03. 2:00 -
Fr, 01.03. 1:30 0
Fr, 01.03. 1:20 0
Fr, 01.03. 1:10 -
Fr, 01.03. 1:00 0
Fr, 01.03. 0:50 0
Fr, 01.03. 0:30 0
Fr, 01.03. 0:00 0
Do, 29.02. 23:30 0
Do, 29.02. 23:00 0
Link zu dieser Seite / Seite empfehlen

Das Wetter in ...